createdAt,value
2018-12-24T00:02:42.077Z,99439.23
2018-12-24T00:05:11.935Z,99444.53
2018-12-24T00:10:30.213Z,99435.16
2018-12-24T00:16:26.951Z,99443.95
2018-12-24T00:18:56.500Z,99439.44
2018-12-24T00:25:00.465Z,99452.39
2018-12-24T00:27:49.649Z,99462.20
2018-12-24T00:30:19.217Z,99462.50
2018-12-24T00:32:48.915Z,99469.36
2018-12-24T00:35:37.868Z,99471.70
2018-12-24T00:38:07.424Z,99472.01
2018-12-24T00:40:36.987Z,99479.12
2018-12-24T00:43:06.536Z,99481.30
2018-12-24T00:45:36.087Z,99480.70
2018-12-24T00:48:24.760Z,99470.06
2018-12-24T00:57:02.882Z,99462.33
2018-12-24T00:59:32.510Z,99471.31
2018-12-24T01:08:09.837Z,99460.45
2018-12-24T01:10:39.400Z,99460.19
2018-12-24T01:13:08.943Z,99466.27
2018-12-24T01:15:57.887Z,99468.08
2018-12-24T01:18:27.795Z,99462.29
2018-12-24T01:20:57.353Z,99456.72
2018-12-24T01:23:26.895Z,99457.25
2018-12-24T01:26:15.836Z,99456.47
2018-12-24T01:29:04.519Z,99455.68
2018-12-24T01:31:53.452Z,99459.92
2018-12-24T01:34:23.005Z,99455.95
2018-12-24T01:36:52.826Z,99455.45
2018-12-24T01:39:22.385Z,99445.64
2018-12-24T01:41:52.226Z,99450.95
2018-12-24T01:44:21.774Z,99457.81
2018-12-24T01:47:10.796Z,99453.82
2018-12-24T01:49:59.751Z,99459.94
2018-12-24T01:52:48.458Z,99466.84
2018-12-24T01:58:06.440Z,99460.76
2018-12-24T02:00:36.023Z,99468.22
2018-12-24T02:03:24.941Z,99466.38
2018-12-24T02:05:54.519Z,99465.84
2018-12-24T02:08:24.062Z,99466.95
2018-12-24T02:10:53.616Z,99461.07
2018-12-24T02:13:24.787Z,99458.16
2018-12-24T02:15:54.350Z,99461.07
2018-12-24T02:18:24.213Z,99459.75
2018-12-24T02:20:53.779Z,99471.42
2018-12-24T02:23:23.331Z,99468.79
2018-12-24T02:25:52.892Z,99471.97
2018-12-24T02:28:22.446Z,99466.14
2018-12-24T02:30:51.996Z,99462.69
2018-12-24T02:33:40.973Z,99469.58
2018-12-24T02:36:10.538Z,99472.49
2018-12-24T02:38:40.087Z,99479.66
2018-12-24T02:41:10.036Z,99473.03
2018-12-24T02:43:39.608Z,99471.16
2018-12-24T02:46:09.121Z,99470.09
2018-12-24T02:48:38.979Z,99476.47
2018-12-24T02:51:08.549Z,99472.23
2018-12-24T02:53:38.087Z,99470.66
2018-12-24T02:56:07.650Z,99470.39
2018-12-24T02:58:37.217Z,99471.53
2018-12-24T03:01:06.756Z,99477.58
2018-12-24T03:09:26.114Z,99489.52
2018-12-24T03:11:55.668Z,99499.09
2018-12-24T03:14:25.576Z,99497.47
2018-12-24T03:16:55.096Z,99503.33
2018-12-24T03:19:44.016Z,99510.25
2018-12-24T03:22:32.977Z,99507.63
2018-12-24T03:25:02.544Z,99511.05
2018-12-24T03:33:20.558Z,99512.11
2018-12-24T03:38:38.512Z,99516.39
2018-12-24T03:41:08.453Z,99521.14
2018-12-24T03:43:57.397Z,99514.83
2018-12-24T03:46:26.942Z,99514.85
2018-12-24T03:49:35.256Z,99523.30
2018-12-24T03:52:24.193Z,99525.73
2018-12-24T03:54:53.785Z,99523.30
2018-12-24T03:57:42.481Z,99526.50
2018-12-24T04:00:31.162Z,99532.56
2018-12-24T04:05:56.355Z,99547.47
2018-12-24T04:08:25.921Z,99551.22
2018-12-24T04:10:55.476Z,99547.17
2018-12-24T04:13:26.668Z,99553.03
2018-12-24T04:16:15.585Z,99557.78
2018-12-24T04:18:46.797Z,99564.97
2018-12-24T04:21:16.688Z,99566.63
2018-12-24T04:23:46.587Z,99580.94
2018-12-24T04:26:16.140Z,99584.13
2018-12-24T04:31:40.500Z,99596.79
2018-12-24T04:34:29.706Z,99605.22
2018-12-24T04:39:54.231Z,99624.53
2018-12-24T04:42:23.791Z,99629.84
2018-12-24T04:45:12.702Z,99633.53
2018-12-24T04:47:42.259Z,99651.83
2018-12-24T04:53:00.324Z,99661.14
2018-12-24T04:55:31.484Z,99674.94
2018-12-24T04:58:01.047Z,99691.03
2018-12-24T05:00:31.010Z,99707.72
2018-12-24T05:03:00.688Z,99715.77
2018-12-24T05:05:30.247Z,99721.70
2018-12-24T05:07:59.830Z,99730.83
2018-12-24T05:10:29.658Z,99743.16
2018-12-24T05:12:59.209Z,99757.92
2018-12-24T05:15:28.776Z,99762.02
2018-12-24T05:17:58.348Z,99772.96
2018-12-24T05:20:28.184Z,99791.31
2018-12-24T05:22:58.091Z,99806.77
2018-12-24T05:25:27.651Z,99819.48
2018-12-24T05:27:57.203Z,99831.41
2018-12-24T05:30:26.751Z,99845.50
2018-12-24T05:32:56.315Z,99857.37
2018-12-24T05:35:25.873Z,99866.72
2018-12-24T05:37:55.428Z,99878.98
2018-12-24T05:40:25.266Z,99889.40
2018-12-24T05:42:54.825Z,99904.61
2018-12-24T05:45:24.377Z,99909.80
2018-12-24T05:47:53.925Z,99919.47
2018-12-24T05:50:23.478Z,99930.18
2018-12-24T05:52:53.050Z,99943.52
2018-12-24T05:55:22.600Z,99965.22
2018-12-24T05:57:52.152Z,99969.19
2018-12-24T06:00:21.698Z,99980.00
2018-12-24T06:02:51.287Z,99990.25
2018-12-24T06:05:20.837Z,100000.84
2018-12-24T06:07:50.393Z,100016.14
2018-12-24T06:10:19.960Z,100026.67
2018-12-24T06:12:49.859Z,100044.03
2018-12-24T06:15:19.408Z,100053.39
2018-12-24T06:17:48.970Z,100061.57
2018-12-24T06:20:18.535Z,100075.35
2018-12-24T06:22:48.108Z,100081.23
2018-12-24T06:25:19.310Z,100099.44
2018-12-24T06:28:08.520Z,100112.48
2018-12-24T06:30:38.062Z,100110.82
2018-12-24T06:33:27.013Z,100132.30
2018-12-24T06:36:15.950Z,100133.13
2018-12-24T06:41:39.955Z,100160.02
2018-12-24T06:44:09.519Z,100176.47
2018-12-24T06:46:39.367Z,100186.38
2018-12-24T06:49:08.955Z,100192.94
2018-12-24T06:51:38.811Z,100198.75
2018-12-24T06:54:08.394Z,100208.07
2018-12-24T06:56:37.937Z,100218.79
2018-12-24T06:59:07.513Z,100221.44
2018-12-24T07:01:37.063Z,100231.00
2018-12-24T07:04:06.664Z,100239.09
2018-12-24T07:06:55.346Z,100243.64
2018-12-24T07:09:44.265Z,100255.77
2018-12-24T07:12:13.847Z,100261.52
2018-12-24T07:17:38.018Z,100279.52
2018-12-24T07:20:07.592Z,100290.24
2018-12-24T07:22:37.157Z,100299.81
2018-12-24T07:28:20.738Z,100313.45
2018-12-24T07:31:30.346Z,100316.11
2018-12-24T07:34:19.636Z,100331.25
2018-12-24T07:36:49.193Z,100337.73
2018-12-24T07:39:18.758Z,100342.56
2018-12-24T07:41:48.309Z,100347.65
2018-12-24T07:44:24.099Z,100358.09
2018-12-24T07:47:08.536Z,100370.35
2018-12-24T07:49:38.115Z,100381.11
2018-12-24T07:52:07.695Z,100388.88
2018-12-24T07:57:50.648Z,100402.34
2018-12-24T08:00:20.208Z,100414.26
2018-12-24T08:02:50.079Z,100419.16
2018-12-24T08:05:19.691Z,100423.59
2018-12-24T08:07:49.248Z,100431.29
2018-12-24T08:10:38.203Z,100439.32
2018-12-24T08:13:07.784Z,100453.42
2018-12-24T08:15:37.356Z,100463.20
2018-12-24T08:18:06.912Z,100468.71
2018-12-24T08:20:36.747Z,100479.81
2018-12-24T08:23:06.305Z,100488.48
2018-12-24T08:25:36.104Z,100491.33
2018-12-24T08:28:05.984Z,100507.91
2018-12-24T08:30:55.265Z,100509.67
2018-12-24T08:33:44.210Z,100515.06
2018-12-24T08:36:13.781Z,100523.70
2018-12-24T08:38:55.208Z,100525.66
2018-12-24T08:44:28.686Z,100535.80
2018-12-24T08:46:58.652Z,100548.70
2018-12-24T08:49:28.225Z,100551.15
2018-12-24T08:51:57.792Z,100553.55
2018-12-24T08:54:27.674Z,100556.72
2018-12-24T08:56:57.248Z,100572.19
2018-12-24T08:59:26.873Z,100576.28
2018-12-24T09:01:58.100Z,100576.88
2018-12-24T09:04:47.375Z,100585.06
2018-12-24T09:07:17.182Z,100585.70
2018-12-24T09:09:46.931Z,100593.87
2018-12-24T09:12:16.485Z,100595.04
2018-12-24T09:14:50.207Z,100598.29
2018-12-24T09:17:36.724Z,100595.44
2018-12-24T09:20:52.613Z,100595.89
2018-12-24T09:23:36.991Z,100604.83
2018-12-24T09:26:06.555Z,100615.86
2018-12-24T09:28:36.117Z,100622.06
2018-12-24T09:31:05.737Z,100625.83
2018-12-24T09:33:35.247Z,100630.60
2018-12-24T09:36:04.826Z,100634.13
2018-12-24T09:38:34.358Z,100636.27
2018-12-24T09:41:42.672Z,100640.91
2018-12-24T09:44:12.226Z,100655.70
2018-12-24T09:46:41.785Z,100648.25
2018-12-24T09:49:11.337Z,100665.13
2018-12-24T09:51:41.188Z,100666.45
2018-12-24T09:54:10.730Z,100669.91
2018-12-24T09:56:40.289Z,100671.17
2018-12-24T09:59:29.232Z,100672.75
2018-12-24T10:01:58.783Z,100672.50
2018-12-24T10:05:08.646Z,100669.70
2018-12-24T10:08:18.254Z,100673.86
2018-12-24T10:10:47.828Z,100678.14
2018-12-24T10:13:17.700Z,100688.23
2018-12-24T10:15:47.251Z,100696.06
2018-12-24T10:18:17.128Z,100707.36
2018-12-24T10:20:46.691Z,100714.31
2018-12-24T10:23:16.543Z,100720.70
2018-12-24T10:25:46.122Z,100725.13
2018-12-24T10:28:35.025Z,100724.48
2018-12-24T10:31:04.573Z,100720.23
2018-12-24T10:33:34.136Z,100714.94
2018-12-24T10:36:03.713Z,100709.96
2018-12-24T10:38:33.267Z,100723.11
2018-12-24T10:41:02.849Z,100730.24
2018-12-24T10:43:32.508Z,100720.77
2018-12-24T10:46:02.083Z,100730.63
2018-12-24T10:48:31.648Z,100730.03
2018-12-24T10:51:01.301Z,100730.05
2018-12-24T10:53:30.834Z,100734.53
2018-12-24T10:56:00.409Z,100732.67
2018-12-24T10:58:30.068Z,100734.06
2018-12-24T11:00:59.675Z,100734.16
2018-12-24T11:03:29.470Z,100744.93
2018-12-24T11:05:59.291Z,100741.87
2018-12-24T11:08:28.924Z,100739.75
2018-12-24T11:10:58.473Z,100741.77
2018-12-24T11:13:28.059Z,100745.98
2018-12-24T11:15:57.608Z,100750.39
2018-12-24T11:18:27.171Z,100755.42
2018-12-24T11:20:57.090Z,100748.82
2018-12-24T11:23:26.902Z,100751.98
2018-12-24T11:25:56.470Z,100751.23
2018-12-24T11:28:26.032Z,100755.09
2018-12-24T11:30:55.593Z,100757.61
2018-12-24T11:33:25.141Z,100761.05
2018-12-24T11:35:55.049Z,100762.13
2018-12-24T11:38:24.606Z,100757.89
2018-12-24T11:40:54.181Z,100754.06
2018-12-24T11:43:24.086Z,100770.14
2018-12-24T11:45:53.654Z,100780.20
2018-12-24T11:48:23.221Z,100771.75
2018-12-24T11:50:52.797Z,100768.30
2018-12-24T11:53:22.336Z,100781.55
2018-12-24T11:56:11.231Z,100787.70
2018-12-24T11:58:40.841Z,100788.32
2018-12-24T12:01:10.388Z,100784.77
2018-12-24T12:03:39.935Z,100794.86
2018-12-24T12:06:09.494Z,100790.80
2018-12-24T12:08:39.034Z,100795.19
2018-12-24T12:11:08.604Z,100795.98
2018-12-24T12:13:38.174Z,100809.50
2018-12-24T12:16:07.751Z,100820.59
2018-12-24T12:18:37.328Z,100820.72
2018-12-24T12:21:06.893Z,100833.00
2018-12-24T12:23:36.499Z,100834.03
2018-12-24T12:26:06.069Z,100840.44
2018-12-24T12:28:35.712Z,100842.86
2018-12-24T12:31:05.312Z,100859.34
2018-12-24T12:33:35.999Z,100870.63
2018-12-24T12:36:25.524Z,100872.84
2018-12-24T12:38:55.077Z,100868.77
2018-12-24T12:41:24.654Z,100874.87
2018-12-24T12:43:54.206Z,100881.98
2018-12-24T12:46:24.123Z,100894.87
2018-12-24T12:48:53.677Z,100901.89
2018-12-24T12:51:23.541Z,100899.64
2018-12-24T12:53:53.163Z,100903.72
2018-12-24T12:56:42.074Z,100914.69
2018-12-24T12:59:11.622Z,100920.16
2018-12-24T13:01:41.539Z,100928.80
2018-12-24T13:04:11.083Z,100931.08
2018-12-24T13:06:40.641Z,100941.57
2018-12-24T13:09:10.188Z,100945.42
2018-12-24T13:11:59.184Z,100950.33
2018-12-24T13:14:28.806Z,100967.51
2018-12-24T13:16:58.372Z,100970.98
2018-12-24T13:19:27.946Z,100974.83
2018-12-24T13:22:04.254Z,100988.48
2018-12-24T13:24:48.465Z,100986.84
2018-12-24T13:27:18.036Z,100995.70
2018-12-24T13:29:47.617Z,100999.50
2018-12-24T13:32:17.512Z,101001.40
2018-12-24T13:34:47.064Z,101009.48
2018-12-24T13:37:16.620Z,101013.09
2018-12-24T13:39:46.258Z,101015.02
2018-12-24T13:42:15.815Z,101015.29
2018-12-24T13:44:45.366Z,101016.15
2018-12-24T13:47:14.946Z,101022.34
2018-12-24T13:49:52.107Z,101030.89
2018-12-24T13:52:42.556Z,101037.31
2018-12-24T13:55:12.105Z,101035.66
2018-12-24T13:57:41.663Z,101025.04
2018-12-24T14:00:11.265Z,101026.02
2018-12-24T14:02:40.819Z,101028.65
2018-12-24T14:05:10.660Z,101040.64
2018-12-24T14:07:40.253Z,101044.33
2018-12-24T14:10:10.101Z,101054.52
2018-12-24T14:12:39.658Z,101060.42
2018-12-24T14:15:09.250Z,101060.91
2018-12-24T14:17:38.769Z,101075.81
2018-12-24T14:20:08.622Z,101069.38
2018-12-24T14:22:38.185Z,101074.78
2018-12-24T14:25:07.749Z,101081.27
2018-12-24T14:27:37.319Z,101092.63
2018-12-24T14:30:26.255Z,101086.48
2018-12-24T14:32:55.814Z,101090.85
2018-12-24T14:35:25.362Z,101099.98
2018-12-24T14:37:54.912Z,101115.52
2018-12-24T14:40:24.468Z,101120.11
2018-12-24T14:42:54.037Z,101121.43
2018-12-24T14:45:23.583Z,101132.05
2018-12-24T14:48:06.359Z,101134.99
2018-12-24T14:50:36.161Z,101137.91
2018-12-24T14:53:05.749Z,101151.91
2018-12-24T14:55:35.373Z,101157.64
2018-12-24T14:58:25.958Z,101153.56
2018-12-24T15:00:55.518Z,101159.17
2018-12-24T15:03:25.203Z,101166.39
2018-12-24T15:05:54.751Z,101175.86
2018-12-24T15:08:24.342Z,101173.73
2018-12-24T15:10:53.900Z,101172.80
2018-12-24T15:13:23.461Z,101177.43
2018-12-24T15:15:53.076Z,101178.27
2018-12-24T15:18:22.655Z,101183.42
2018-12-24T15:20:52.475Z,101189.26
2018-12-24T15:23:22.042Z,101209.47
2018-12-24T15:26:10.917Z,101203.69
2018-12-24T15:28:40.474Z,101217.94
2018-12-24T15:31:10.034Z,101219.48
2018-12-24T15:33:39.609Z,101221.26
2018-12-24T15:36:09.483Z,101224.58
2018-12-24T15:38:39.067Z,101221.44
2018-12-24T15:41:08.931Z,101228.33
2018-12-24T15:43:38.481Z,101224.78
2018-12-24T15:46:08.033Z,101225.77
2018-12-24T15:48:39.214Z,101230.97
2018-12-24T15:51:08.836Z,101243.47
2018-12-24T15:53:38.469Z,101247.21
2018-12-24T15:56:27.674Z,101254.09
2018-12-24T15:58:57.234Z,101252.78
2018-12-24T16:01:26.793Z,101256.23
2018-12-24T16:03:56.598Z,101266.18
2018-12-24T16:06:26.212Z,101265.62
2018-12-24T16:08:56.066Z,101267.89
2018-12-24T16:11:25.614Z,101270.48
2018-12-24T16:13:55.189Z,101267.63
2018-12-24T16:16:24.737Z,101273.16
2018-12-24T16:18:54.636Z,101287.72
2018-12-24T16:21:24.478Z,101290.87
2018-12-24T16:23:54.036Z,101297.80
2018-12-24T16:26:23.580Z,101301.77
2018-12-24T16:28:53.139Z,101297.47
2018-12-24T16:31:22.994Z,101297.55
2018-12-24T16:33:52.571Z,101293.47
2018-12-24T16:36:22.424Z,101294.61
2018-12-24T16:38:51.983Z,101293.25
2018-12-24T16:41:40.863Z,101288.74
2018-12-24T16:44:10.486Z,101289.00
2018-12-24T16:46:40.387Z,101288.52
2018-12-24T16:49:09.949Z,101282.10
2018-12-24T16:51:39.493Z,101282.61
2018-12-24T16:54:09.058Z,101283.55
2018-12-24T16:56:38.603Z,101287.38
2018-12-24T16:59:08.178Z,101284.28
2018-12-24T17:01:37.979Z,101287.13
2018-12-24T17:04:07.549Z,101283.00
2018-12-24T17:06:37.116Z,101289.89
2018-12-24T17:09:46.737Z,101282.69
2018-12-24T17:12:35.658Z,101288.02
2018-12-24T17:15:45.283Z,101293.93
2018-12-24T17:18:14.891Z,101293.86
2018-12-24T17:20:44.776Z,101292.96
2018-12-24T17:23:14.592Z,101296.19
2018-12-24T17:26:03.522Z,101295.05
2018-12-24T17:28:33.097Z,101287.25
2018-12-24T17:31:02.673Z,101294.36
2018-12-24T17:33:32.212Z,101293.05
2018-12-24T17:36:01.754Z,101291.04
2018-12-24T17:38:31.304Z,101288.53
2018-12-24T17:41:02.484Z,101293.67
2018-12-24T17:43:32.068Z,101286.27
2018-12-24T17:46:01.593Z,101284.70
2018-12-24T17:48:31.439Z,101276.66
2018-12-24T17:51:00.983Z,101270.64
2018-12-24T17:53:30.539Z,101272.06
2018-12-24T17:56:00.352Z,101284.91
2018-12-24T17:58:29.922Z,101287.89
2018-12-24T18:00:59.464Z,101298.41
2018-12-24T18:03:29.108Z,101303.94
2018-12-24T18:05:58.922Z,101309.09
2018-12-24T18:12:15.040Z,101314.92
2018-12-24T18:15:04.253Z,101318.20
2018-12-24T18:17:33.892Z,101325.81
2018-12-24T18:20:03.595Z,101333.39
2018-12-24T18:22:33.137Z,101335.66
2018-12-24T18:25:02.733Z,101341.14
2018-12-24T18:27:32.280Z,101340.45
2018-12-24T18:30:01.847Z,101335.23
2018-12-24T18:32:31.427Z,101332.23
2018-12-24T18:35:00.980Z,101339.65
2018-12-24T18:37:30.528Z,101343.78
2018-12-24T18:40:19.734Z,101344.93
2018-12-24T18:42:49.296Z,101343.10
2018-12-24T18:45:18.874Z,101337.14
2018-12-24T18:47:48.451Z,101331.30
2018-12-24T18:50:18.364Z,101329.13
2018-12-24T18:52:47.936Z,101331.61
2018-12-24T18:55:17.500Z,101326.07
2018-12-24T18:57:47.041Z,101328.16
2018-12-24T19:00:16.887Z,101314.52
2018-12-24T19:02:46.426Z,101304.39
2018-12-24T19:08:11.963Z,101308.69
2018-12-24T19:13:35.914Z,101305.97
2018-12-24T19:16:24.819Z,101317.92
2018-12-24T19:19:13.762Z,101323.38
2018-12-24T19:22:02.964Z,101333.00
2018-12-24T19:24:32.636Z,101329.13
2018-12-24T19:27:02.182Z,101315.41
2018-12-24T19:29:31.743Z,101322.19
2018-12-24T19:32:20.629Z,101322.37
2018-12-24T19:34:50.208Z,101306.98
2018-12-24T19:37:20.114Z,101311.58
2018-12-24T19:39:49.660Z,101320.82
2018-12-24T19:42:38.615Z,101313.41
2018-12-24T19:45:08.170Z,101319.67
2018-12-24T19:47:37.990Z,101321.76
2018-12-24T19:50:26.670Z,101314.39
2018-12-24T19:55:44.673Z,101317.23
2018-12-24T19:58:14.224Z,101311.83
2018-12-24T20:00:43.813Z,101313.91
2018-12-24T20:03:32.743Z,101313.23
2018-12-24T20:06:21.717Z,101316.55
2018-12-24T20:08:51.565Z,101320.64
2018-12-24T20:11:21.134Z,101326.61
2018-12-24T20:13:50.928Z,101327.88
2018-12-24T20:16:39.905Z,101325.92
2018-12-24T20:19:09.454Z,101325.53
2018-12-24T20:21:39.292Z,101325.23
2018-12-24T20:24:08.841Z,101324.09
2018-12-24T20:26:38.792Z,101324.59
2018-12-24T20:29:08.427Z,101335.41
2018-12-24T20:31:38.005Z,101337.12
2018-12-24T20:34:07.546Z,101328.30
2018-12-24T20:39:16.974Z,101334.91
2018-12-24T20:41:46.537Z,101336.44
2018-12-24T20:44:35.825Z,101325.92
2018-12-24T20:47:25.108Z,101325.75
2018-12-24T20:49:54.665Z,101328.81
2018-12-24T20:52:24.216Z,101328.00
2018-12-24T20:54:53.779Z,101330.77
2018-12-24T20:57:23.455Z,101335.23
2018-12-24T20:59:53.058Z,101336.44
2018-12-24T21:02:22.639Z,101342.27
2018-12-24T21:04:52.339Z,101343.92
2018-12-24T21:07:21.974Z,101347.88
2018-12-24T21:09:51.869Z,101349.34
2018-12-24T21:12:21.549Z,101352.23
2018-12-24T21:14:51.226Z,101344.54
2018-12-24T21:17:20.763Z,101341.77
2018-12-24T21:20:02.899Z,101343.78
2018-12-24T21:22:32.424Z,101346.42
2018-12-24T21:25:02.016Z,101349.06
2018-12-24T21:27:31.576Z,101349.06
2018-12-24T21:30:01.531Z,101357.39
2018-12-24T21:32:50.803Z,101361.36
2018-12-24T21:38:14.600Z,101362.80
2018-12-24T21:40:44.170Z,101362.30
2018-12-24T21:43:33.146Z,101363.28
2018-12-24T21:46:02.705Z,101363.16
2018-12-24T21:48:32.290Z,101349.77
2018-12-24T21:51:01.868Z,101341.09
2018-12-24T21:53:31.696Z,101337.20
2018-12-24T21:56:01.622Z,101330.08
2018-12-24T21:58:31.257Z,101334.34
2018-12-24T22:01:00.837Z,101336.69
2018-12-24T22:03:30.625Z,101332.90
2018-12-24T22:06:00.486Z,101332.47
2018-12-24T22:08:30.377Z,101330.77
2018-12-24T22:10:59.932Z,101330.38
2018-12-24T22:13:29.827Z,101335.99
2018-12-24T22:15:59.764Z,101332.42
2018-12-24T22:18:48.663Z,101327.56
2018-12-24T22:21:18.595Z,101320.83
2018-12-24T22:23:48.143Z,101325.25
2018-12-24T22:26:17.806Z,101326.75
2018-12-24T22:28:47.360Z,101321.58
2018-12-24T22:31:36.329Z,101316.13
2018-12-24T22:34:25.538Z,101319.13
2018-12-24T22:37:14.432Z,101313.48
2018-12-24T22:39:44.004Z,101311.02
2018-12-24T22:42:13.564Z,101305.22
2018-12-24T22:44:43.118Z,101305.97
2018-12-24T22:47:12.674Z,101293.66
2018-12-24T22:49:42.236Z,101281.05
2018-12-24T22:52:11.793Z,101285.28
2018-12-24T22:54:41.347Z,101286.16
2018-12-24T22:57:11.244Z,101283.75
2018-12-24T23:00:00.281Z,101288.05
2018-12-24T23:02:30.113Z,101281.73
2018-12-24T23:04:59.726Z,101276.27
2018-12-24T23:07:29.287Z,101274.62
2018-12-24T23:09:58.872Z,101275.64
2018-12-24T23:12:28.413Z,101282.25
2018-12-24T23:14:57.980Z,101287.14
2018-12-24T23:17:27.549Z,101286.78
2018-12-24T23:19:57.096Z,101284.83
2018-12-24T23:22:26.685Z,101285.52
2018-12-24T23:24:56.244Z,101293.06
2018-12-24T23:27:25.812Z,101298.97
2018-12-24T23:29:55.354Z,101296.62
2018-12-24T23:32:24.919Z,101292.36
2018-12-24T23:34:54.468Z,101310.47
2018-12-24T23:37:24.035Z,101304.31
2018-12-24T23:39:53.584Z,101311.22
2018-12-24T23:42:23.472Z,101300.86
2018-12-24T23:44:53.029Z,101308.00
2018-12-24T23:47:22.618Z,101304.97
2018-12-24T23:49:52.199Z,101297.99
2018-12-24T23:52:21.739Z,101305.34
2018-12-24T23:54:51.316Z,101299.94
2018-12-24T23:57:21.189Z,101302.08
2018-12-24T23:59:50.785Z,101299.61
